sensor_id;sensor_type;location;lat;lon;timestamp;pressure;altitude;pressure_sealevel;temperature;humidity
42771;BME280;28426;42.872;25.314;2024-03-29T00:02:20;96616.72;;;9.04;66.81
42771;BME280;28426;42.872;25.314;2024-03-29T00:04:47;96628.56;;;9.01;66.83
42771;BME280;28426;42.872;25.314;2024-03-29T00:07:14;96621.97;;;8.97;67.44
42771;BME280;28426;42.872;25.314;2024-03-29T00:09:41;96622.34;;;8.94;67.09
42771;BME280;28426;42.872;25.314;2024-03-29T00:12:08;96629.69;;;8.92;67.12
42771;BME280;28426;42.872;25.314;2024-03-29T00:14:34;96623.91;;;8.88;67.20
42771;BME280;28426;42.872;25.314;2024-03-29T00:17:01;96622.47;;;8.86;67.47
42771;BME280;28426;42.872;25.314;2024-03-29T00:19:30;96627.13;;;8.84;67.93
42771;BME280;28426;42.872;25.314;2024-03-29T00:21:57;96634.47;;;8.82;67.98
42771;BME280;28426;42.872;25.314;2024-03-29T00:24:24;96629.16;;;8.82;68.16
42771;BME280;28426;42.872;25.314;2024-03-29T00:26:50;96632.19;;;8.79;68.28
42771;BME280;28426;42.872;25.314;2024-03-29T00:29:17;96637.69;;;8.77;68.17
42771;BME280;28426;42.872;25.314;2024-03-29T00:31:44;96636.88;;;8.76;67.72
42771;BME280;28426;42.872;25.314;2024-03-29T00:34:10;96637.88;;;8.75;67.62
42771;BME280;28426;42.872;25.314;2024-03-29T00:36:40;96639.72;;;8.75;67.91
42771;BME280;28426;42.872;25.314;2024-03-29T00:39:06;96639.91;;;8.73;67.94
42771;BME280;28426;42.872;25.314;2024-03-29T00:41:33;96639.28;;;8.71;67.67
42771;BME280;28426;42.872;25.314;2024-03-29T00:44:00;96633.13;;;8.71;67.87
42771;BME280;28426;42.872;25.314;2024-03-29T00:46:27;96640.25;;;8.70;67.66
42771;BME280;28426;42.872;25.314;2024-03-29T00:48:54;96632.28;;;8.70;67.91
42771;BME280;28426;42.872;25.314;2024-03-29T00:51:20;96635.78;;;8.71;67.85
42771;BME280;28426;42.872;25.314;2024-03-29T00:53:50;96635.78;;;8.71;67.85
42771;BME280;28426;42.872;25.314;2024-03-29T00:56:16;96633.94;;;8.71;68.05
42771;BME280;28426;42.872;25.314;2024-03-29T00:58:43;96644.59;;;8.71;67.94
42771;BME280;28426;42.872;25.314;2024-03-29T01:01:10;96636.78;;;8.70;67.79
42771;BME280;28426;42.872;25.314;2024-03-29T01:03:37;96629.00;;;8.68;67.84
42771;BME280;28426;42.872;25.314;2024-03-29T01:06:04;96628.34;;;8.66;67.87
42771;BME280;28426;42.872;25.314;2024-03-29T01:08:30;96633.88;;;8.65;68.10
42771;BME280;28426;42.872;25.314;2024-03-29T01:11:00;96626.41;;;8.60;68.24
42771;BME280;28426;42.872;25.314;2024-03-29T01:13:26;96639.09;;;8.58;67.92
42771;BME280;28426;42.872;25.314;2024-03-29T01:15:53;96633.94;;;8.56;67.94
42771;BME280;28426;42.872;25.314;2024-03-29T01:18:20;96631.47;;;8.55;68.35
42771;BME280;28426;42.872;25.314;2024-03-29T01:20:46;96636.13;;;8.53;68.45
42771;BME280;28426;42.872;25.314;2024-03-29T01:23:13;96635.66;;;8.49;68.74
42771;BME280;28426;42.872;25.314;2024-03-29T01:25:40;96631.53;;;8.46;68.59
42771;BME280;28426;42.872;25.314;2024-03-29T01:28:09;96648.50;;;8.45;68.50
42771;BME280;28426;42.872;25.314;2024-03-29T01:30:36;96643.53;;;8.42;68.63
42771;BME280;28426;42.872;25.314;2024-03-29T01:33:05;96651.06;;;8.38;68.76
42771;BME280;28426;42.872;25.314;2024-03-29T01:35:32;96646.09;;;8.35;69.11
42771;BME280;28426;42.872;25.314;2024-03-29T01:37:59;96647.28;;;8.33;68.93
42771;BME280;28426;42.872;25.314;2024-03-29T01:40:25;96656.47;;;8.30;69.08
42771;BME280;28426;42.872;25.314;2024-03-29T01:42:53;96653.97;;;8.29;69.43
42771;BME280;28426;42.872;25.314;2024-03-29T01:45:22;96660.47;;;8.26;69.21
42771;BME280;28426;42.872;25.314;2024-03-29T01:47:49;96667.16;;;8.22;69.24
42771;BME280;28426;42.872;25.314;2024-03-29T01:50:16;96664.69;;;8.20;69.19
42771;BME280;28426;42.872;25.314;2024-03-29T01:52:43;96667.50;;;8.19;68.99
42771;BME280;28426;42.872;25.314;2024-03-29T01:55:10;96675.69;;;8.17;69.00
42771;BME280;28426;42.872;25.314;2024-03-29T01:57:37;96681.34;;;8.14;69.07
42771;BME280;28426;42.872;25.314;2024-03-29T02:00:05;96700.31;;;8.11;68.96
42771;BME280;28426;42.872;25.314;2024-03-29T02:02:36;96695.72;;;8.05;68.80
42771;BME280;28426;42.872;25.314;2024-03-29T02:05:04;96700.38;;;8.03;68.43
42771;BME280;28426;42.872;25.314;2024-03-29T02:07:31;96694.78;;;7.97;69.10
42771;BME280;28426;42.872;25.314;2024-03-29T02:09:58;96699.81;;;7.92;68.96
42771;BME280;28426;42.872;25.314;2024-03-29T02:12:25;96702.81;;;7.89;69.50
42771;BME280;28426;42.872;25.314;2024-03-29T02:14:52;96717.47;;;7.85;69.52
42771;BME280;28426;42.872;25.314;2024-03-29T02:17:18;96720.47;;;7.82;69.16
42771;BME280;28426;42.872;25.314;2024-03-29T02:19:48;96719.19;;;7.78;69.47
42771;BME280;28426;42.872;25.314;2024-03-29T02:22:15;96723.19;;;7.74;69.18
42771;BME280;28426;42.872;25.314;2024-03-29T02:24:46;96727.19;;;7.69;69.17
42771;BME280;28426;42.872;25.314;2024-03-29T02:27:13;96737.19;;;7.67;69.55
42771;BME280;28426;42.872;25.314;2024-03-29T02:29:43;96734.88;;;7.64;69.18
42771;BME280;28426;42.872;25.314;2024-03-29T02:32:10;96750.97;;;7.63;69.47
42771;BME280;28426;42.872;25.314;2024-03-29T02:34:36;96753.00;;;7.61;69.74
42771;BME280;28426;42.872;25.314;2024-03-29T02:37:03;96756.81;;;7.58;69.97
42771;BME280;28426;42.872;25.314;2024-03-29T02:39:30;96773.91;;;7.55;69.40
42771;BME280;28426;42.872;25.314;2024-03-29T02:41:59;96779.59;;;7.52;69.23
42771;BME280;28426;42.872;25.314;2024-03-29T02:44:26;96776.25;;;7.50;69.24
42771;BME280;28426;42.872;25.314;2024-03-29T02:46:53;96787.25;;;7.47;69.10
42771;BME280;28426;42.872;25.314;2024-03-29T02:49:19;96793.53;;;7.46;69.35
42771;BME280;28426;42.872;25.314;2024-03-29T02:51:46;96797.34;;;7.43;69.13
42771;BME280;28426;42.872;25.314;2024-03-29T02:54:13;96800.19;;;7.42;69.20
42771;BME280;28426;42.872;25.314;2024-03-29T02:56:39;96793.22;;;7.41;69.17
42771;BME280;28426;42.872;25.314;2024-03-29T02:59:09;96815.31;;;7.41;69.30
42771;BME280;28426;42.872;25.314;2024-03-29T03:01:35;96822.25;;;7.42;69.47
42771;BME280;28426;42.872;25.314;2024-03-29T03:04:03;96827.56;;;7.42;69.30
42771;BME280;28426;42.872;25.314;2024-03-29T03:06:29;96833.88;;;7.41;69.07
42771;BME280;28426;42.872;25.314;2024-03-29T03:08:56;96827.91;;;7.39;68.86
42771;BME280;28426;42.872;25.314;2024-03-29T03:11:38;96833.56;;;7.36;69.08
42771;BME280;28426;42.872;25.314;2024-03-29T03:14:04;96845.53;;;7.32;69.42
42771;BME280;28426;42.872;25.314;2024-03-29T03:16:34;96848.50;;;7.29;69.37
42771;BME280;28426;42.872;25.314;2024-03-29T03:19:00;96836.41;;;7.26;69.17
42771;BME280;28426;42.872;25.314;2024-03-29T03:21:27;96831.28;;;7.25;69.43
42771;BME280;28426;42.872;25.314;2024-03-29T03:23:54;96843.72;;;7.24;69.51
42771;BME280;28426;42.872;25.314;2024-03-29T03:26:21;96829.66;;;7.15;69.52
42771;BME280;28426;42.872;25.314;2024-03-29T03:28:47;96855.50;;;7.22;69.59
42771;BME280;28426;42.872;25.314;2024-03-29T03:31:14;96855.84;;;7.18;69.82
42771;BME280;28426;42.872;25.314;2024-03-29T03:33:46;96852.53;;;7.16;69.83
42771;BME280;28426;42.872;25.314;2024-03-29T03:36:13;96866.97;;;7.14;70.07
42771;BME280;28426;42.872;25.314;2024-03-29T03:38:40;96868.13;;;7.11;70.09
42771;BME280;28426;42.872;25.314;2024-03-29T03:41:06;96859.53;;;7.09;69.80
42771;BME280;28426;42.872;25.314;2024-03-29T03:43:33;96866.00;;;7.06;70.09
42771;BME280;28426;42.872;25.314;2024-03-29T03:46:00;96860.69;;;7.06;70.31
42771;BME280;28426;42.872;25.314;2024-03-29T03:48:27;96874.13;;;7.05;70.23
42771;BME280;28426;42.872;25.314;2024-03-29T03:50:57;96863.84;;;7.02;70.09
42771;BME280;28426;42.872;25.314;2024-03-29T03:53:24;96870.16;;;7.01;70.36
42771;BME280;28426;42.872;25.314;2024-03-29T03:55:50;96879.09;;;7.00;70.40
42771;BME280;28426;42.872;25.314;2024-03-29T03:58:17;96880.06;;;6.99;70.36
42771;BME280;28426;42.872;25.314;2024-03-29T04:00:44;96880.91;;;6.99;69.95
42771;BME280;28426;42.872;25.314;2024-03-29T04:03:11;96888.03;;;6.99;70.16
42771;BME280;28426;42.872;25.314;2024-03-29T04:05:37;96886.22;;;6.99;70.14
42771;BME280;28426;42.872;25.314;2024-03-29T04:08:07;96884.75;;;6.97;70.15
42771;BME280;28426;42.872;25.314;2024-03-29T04:10:38;96896.34;;;6.96;70.46
42771;BME280;28426;42.872;25.314;2024-03-29T04:13:04;96898.31;;;6.93;70.25
42771;BME280;28426;42.872;25.314;2024-03-29T04:15:31;96913.44;;;6.93;70.30
42771;BME280;28426;42.872;25.314;2024-03-29T04:17:59;96909.28;;;6.90;70.35
42771;BME280;28426;42.872;25.314;2024-03-29T04:20:26;96921.88;;;6.88;70.07
42771;BME280;28426;42.872;25.314;2024-03-29T04:22:53;96919.38;;;6.87;69.68
42771;BME280;28426;42.872;25.314;2024-03-29T04:25:22;96920.22;;;6.87;69.74
42771;BME280;28426;42.872;25.314;2024-03-29T04:27:49;96925.22;;;6.90;69.78
42771;BME280;28426;42.872;25.314;2024-03-29T04:30:16;96925.22;;;6.90;70.00
42771;BME280;28426;42.872;25.314;2024-03-29T04:32:42;96930.50;;;6.90;70.33
42771;BME280;28426;42.872;25.314;2024-03-29T04:35:09;96931.31;;;6.91;69.95
42771;BME280;28426;42.872;25.314;2024-03-29T04:37:36;96938.28;;;6.92;70.03
42771;BME280;28426;42.872;25.314;2024-03-29T04:40:03;96949.72;;;6.92;69.95
42771;BME280;28426;42.872;25.314;2024-03-29T04:42:33;96953.03;;;6.94;69.90
42771;BME280;28426;42.872;25.314;2024-03-29T04:45:00;96946.75;;;6.96;69.81
42771;BME280;28426;42.872;25.314;2024-03-29T04:47:27;96950.06;;;6.98;69.70
42771;BME280;28426;42.872;25.314;2024-03-29T04:49:53;96955.03;;;7.01;69.81
42771;BME280;28426;42.872;25.314;2024-03-29T04:52:20;96955.38;;;7.06;69.67
42771;BME280;28426;42.872;25.314;2024-03-29T04:54:47;96964.81;;;7.09;69.73
42771;BME280;28426;42.872;25.314;2024-03-29T04:57:14;96970.59;;;7.12;69.46
42771;BME280;28426;42.872;25.314;2024-03-29T04:59:43;96969.97;;;7.18;69.49
42771;BME280;28426;42.872;25.314;2024-03-29T05:02:10;96972.94;;;7.24;69.24
42771;BME280;28426;42.872;25.314;2024-03-29T05:04:36;96978.72;;;7.27;69.23
42771;BME280;28426;42.872;25.314;2024-03-29T05:07:03;96989.88;;;7.31;69.02
42771;BME280;28426;42.872;25.314;2024-03-29T05:09:33;96983.41;;;7.33;69.13
42771;BME280;28426;42.872;25.314;2024-03-29T05:12:00;96985.38;;;7.40;69.01
42771;BME280;28426;42.872;25.314;2024-03-29T05:14:26;96988.34;;;7.45;68.83
42771;BME280;28426;42.872;25.314;2024-03-29T05:16:56;96982.19;;;7.53;68.90
42771;BME280;28426;42.872;25.314;2024-03-29T05:19:22;96984.50;;;7.64;68.80
42771;BME280;28426;42.872;25.314;2024-03-29T05:21:49;96982.78;;;7.80;68.76
42771;BME280;28426;42.872;25.314;2024-03-29T05:24:16;96987.59;;;7.93;68.57
42771;BME280;28426;42.872;25.314;2024-03-29T05:26:42;96999.81;;;8.10;68.60
42771;BME280;28426;42.872;25.314;2024-03-29T05:29:09;97003.88;;;8.30;68.46
42771;BME280;28426;42.872;25.314;2024-03-29T05:31:36;97002.63;;;8.49;68.06
42771;BME280;28426;42.872;25.314;2024-03-29T05:34:05;96998.56;;;8.70;67.11
42771;BME280;28426;42.872;25.314;2024-03-29T05:36:32;97008.41;;;8.93;66.63
42771;BME280;28426;42.872;25.314;2024-03-29T05:38:58;97014.00;;;9.21;66.97
42771;BME280;28426;42.872;25.314;2024-03-29T05:41:26;97001.78;;;9.50;66.69
42771;BME280;28426;42.872;25.314;2024-03-29T05:43:52;97011.75;;;9.87;65.59
42771;BME280;28426;42.872;25.314;2024-03-29T05:46:19;97016.34;;;10.23;65.47
42771;BME280;28426;42.872;25.314;2024-03-29T05:48:46;97012.19;;;10.66;64.37
42771;BME280;28426;42.872;25.314;2024-03-29T05:51:15;97022.50;;;11.12;63.54
42771;BME280;28426;42.872;25.314;2024-03-29T05:53:42;97010.59;;;11.59;61.75
42771;BME280;28426;42.872;25.314;2024-03-29T05:56:09;97017.53;;;12.10;61.39
42771;BME280;28426;42.872;25.314;2024-03-29T05:58:36;97026.22;;;12.61;60.11
42771;BME280;28426;42.872;25.314;2024-03-29T06:01:03;97028.63;;;13.12;59.56
42771;BME280;28426;42.872;25.314;2024-03-29T06:03:30;97034.69;;;13.68;58.42
42771;BME280;28426;42.872;25.314;2024-03-29T06:05:56;97036.91;;;14.18;56.72
42771;BME280;28426;42.872;25.314;2024-03-29T06:08:26;97031.34;;;14.72;55.91
42771;BME280;28426;42.872;25.314;2024-03-29T06:10:53;97028.84;;;15.23;55.03
42771;BME280;28426;42.872;25.314;2024-03-29T06:13:19;97027.22;;;15.73;53.71
42771;BME280;28426;42.872;25.314;2024-03-29T06:15:54;97043.94;;;16.26;52.91
42771;BME280;28426;42.872;25.314;2024-03-29T06:18:47;97040.63;;;16.80;51.06
42771;BME280;28426;42.872;25.314;2024-03-29T06:21:14;97037.09;;;17.29;50.00
42771;BME280;28426;42.872;25.314;2024-03-29T06:23:44;97046.47;;;17.81;49.05
42771;BME280;28426;42.872;25.314;2024-03-29T06:26:10;97050.25;;;18.28;47.73
42771;BME280;28426;42.872;25.314;2024-03-29T06:28:37;97053.38;;;18.73;46.25
42771;BME280;28426;42.872;25.314;2024-03-29T06:31:04;97052.56;;;19.13;45.25
42771;BME280;28426;42.872;25.314;2024-03-29T06:33:30;97045.66;;;19.52;44.39
42771;BME280;28426;42.872;25.314;2024-03-29T06:35:57;97042.44;;;19.89;43.40
42771;BME280;28426;42.872;25.314;2024-03-29T06:38:24;97043.59;;;20.28;42.51
42771;BME280;28426;42.872;25.314;2024-03-29T06:40:53;97051.72;;;20.67;41.88
42771;BME280;28426;42.872;25.314;2024-03-29T06:43:20;97048.88;;;21.01;40.45
42771;BME280;28426;42.872;25.314;2024-03-29T06:45:46;97061.16;;;21.37;40.22
42771;BME280;28426;42.872;25.314;2024-03-29T06:48:13;97063.44;;;21.73;39.35
42771;BME280;28426;42.872;25.314;2024-03-29T06:50:41;97061.00;;;22.09;37.63
42771;BME280;28426;42.872;25.314;2024-03-29T06:53:07;97064.75;;;22.46;36.91
42771;BME280;28426;42.872;25.314;2024-03-29T06:55:35;97066.31;;;22.85;37.01
42771;BME280;28426;42.872;25.314;2024-03-29T06:58:05;97063.44;;;23.23;35.68
42771;BME280;28426;42.872;25.314;2024-03-29T07:00:32;97068.72;;;23.61;35.31
42771;BME280;28426;42.872;25.314;2024-03-29T07:02:58;97065.72;;;23.99;34.66
42771;BME280;28426;42.872;25.314;2024-03-29T07:05:25;97063.81;;;24.36;33.01
42771;BME280;28426;42.872;25.314;2024-03-29T07:07:52;97068.94;;;24.53;31.68
42771;BME280;28426;42.872;25.314;2024-03-29T07:10:19;97067.56;;;24.66;31.68
42771;BME280;28426;42.872;25.314;2024-03-29T07:12:45;97070.78;;;24.84;31.19
42771;BME280;28426;42.872;25.314;2024-03-29T07:15:15;97079.13;;;25.08;30.76
42771;BME280;28426;42.872;25.314;2024-03-29T07:17:41;97066.69;;;25.37;30.12
42771;BME280;28426;42.872;25.314;2024-03-29T07:20:09;97065.16;;;25.65;30.05
42771;BME280;28426;42.872;25.314;2024-03-29T07:22:36;97067.97;;;25.90;28.49
42771;BME280;28426;42.872;25.314;2024-03-29T07:25:03;97069.16;;;26.13;27.86
42771;BME280;28426;42.872;25.314;2024-03-29T07:27:31;97070.56;;;26.40;27.89
42771;BME280;28426;42.872;25.314;2024-03-29T07:29:59;97074.41;;;26.63;27.06
42771;BME280;28426;42.872;25.314;2024-03-29T07:32:29;97085.19;;;26.79;26.25
42771;BME280;28426;42.872;25.314;2024-03-29T07:34:55;97082.16;;;26.81;25.63
42771;BME280;28426;42.872;25.314;2024-03-29T07:37:22;97087.31;;;26.82;25.32
42771;BME280;28426;42.872;25.314;2024-03-29T07:39:49;97097.97;;;26.84;26.08
42771;BME280;28426;42.872;25.314;2024-03-29T07:42:16;97092.94;;;26.96;26.09
42771;BME280;28426;42.872;25.314;2024-03-29T07:44:43;97097.06;;;27.18;25.28
42771;BME280;28426;42.872;25.314;2024-03-29T07:47:10;97092.94;;;27.40;25.15
42771;BME280;28426;42.872;25.314;2024-03-29T07:49:40;97099.88;;;27.51;24.72
42771;BME280;28426;42.872;25.314;2024-03-29T07:52:07;97099.78;;;27.62;24.77
42771;BME280;28426;42.872;25.314;2024-03-29T07:54:34;97101.69;;;27.80;24.04
42771;BME280;28426;42.872;25.314;2024-03-29T07:57:00;97096.97;;;28.00;24.08
42771;BME280;28426;42.872;25.314;2024-03-29T07:59:28;97097.41;;;28.07;23.81
42771;BME280;28426;42.872;25.314;2024-03-29T08:01:57;97104.03;;;28.06;22.57
42771;BME280;28426;42.872;25.314;2024-03-29T08:04:24;97103.78;;;28.03;22.79
42771;BME280;28426;42.872;25.314;2024-03-29T08:06:54;97095.22;;;27.90;22.58
42771;BME280;28426;42.872;25.314;2024-03-29T08:09:21;97098.28;;;27.89;23.18
42771;BME280;28426;42.872;25.314;2024-03-29T08:11:48;97104.34;;;27.86;22.97
42771;BME280;28426;42.872;25.314;2024-03-29T08:14:14;97102.16;;;28.02;24.19
42771;BME280;28426;42.872;25.314;2024-03-29T08:16:41;97098.16;;;28.13;22.67
42771;BME280;28426;42.872;25.314;2024-03-29T08:19:08;97087.22;;;28.27;23.38
42771;BME280;28426;42.872;25.314;2024-03-29T08:21:35;97083.41;;;28.56;23.21
42771;BME280;28426;42.872;25.314;2024-03-29T08:24:04;97090.34;;;28.96;21.82
42771;BME280;28426;42.872;25.314;2024-03-29T08:26:31;97099.41;;;29.10;21.34
42771;BME280;28426;42.872;25.314;2024-03-29T08:28:58;97090.34;;;29.10;21.28
42771;BME280;28426;42.872;25.314;2024-03-29T08:31:25;97084.03;;;29.09;21.39
42771;BME280;28426;42.872;25.314;2024-03-29T08:33:51;97083.72;;;29.11;21.40
42771;BME280;28426;42.872;25.314;2024-03-29T08:36:18;97094.59;;;29.16;21.80
42771;BME280;28426;42.872;25.314;2024-03-29T08:38:45;97090.34;;;29.10;20.88
42771;BME280;28426;42.872;25.314;2024-03-29T08:41:15;97090.34;;;28.96;20.81
42771;BME280;28426;42.872;25.314;2024-03-29T08:43:41;97088.72;;;28.81;21.29
42771;BME280;28426;42.872;25.314;2024-03-29T08:46:08;97089.19;;;28.69;21.14
42771;BME280;28426;42.872;25.314;2024-03-29T08:48:35;97085.03;;;28.57;21.04
42771;BME280;28426;42.872;25.314;2024-03-29T08:51:03;97092.84;;;28.36;21.26
42771;BME280;28426;42.872;25.314;2024-03-29T08:53:30;97085.13;;;28.19;20.81
42771;BME280;28426;42.872;25.314;2024-03-29T08:55:56;97089.19;;;28.07;21.48
42771;BME280;28426;42.872;25.314;2024-03-29T08:58:26;97087.38;;;28.17;21.83
42771;BME280;28426;42.872;25.314;2024-03-29T09:00:53;97081.78;;;28.41;22.06
42771;BME280;28426;42.872;25.314;2024-03-29T09:03:21;97083.41;;;28.70;21.92
42771;BME280;28426;42.872;25.314;2024-03-29T09:05:47;97077.75;;;28.95;20.69
42771;BME280;28426;42.872;25.314;2024-03-29T09:08:14;97073.16;;;29.04;20.47
42771;BME280;28426;42.872;25.314;2024-03-29T09:10:41;97069.38;;;29.00;20.52
42771;BME280;28426;42.872;25.314;2024-03-29T09:13:08;97063.91;;;29.00;20.68
42771;BME280;28426;42.872;25.314;2024-03-29T09:15:37;97056.38;;;28.92;20.20
42771;BME280;28426;42.872;25.314;2024-03-29T09:18:04;97057.78;;;28.89;20.87
42771;BME280;28426;42.872;25.314;2024-03-29T09:20:34;97053.03;;;28.95;20.29
42771;BME280;28426;42.872;25.314;2024-03-29T09:23:00;97046.91;;;28.84;19.76
42771;BME280;28426;42.872;25.314;2024-03-29T09:25:27;97047.81;;;28.65;20.23
42771;BME280;28426;42.872;25.314;2024-03-29T09:27:54;97039.09;;;28.49;20.49
42771;BME280;28426;42.872;25.314;2024-03-29T09:30:20;97047.63;;;28.33;20.07
42771;BME280;28426;42.872;25.314;2024-03-29T09:32:50;97063.00;;;28.15;20.06
42771;BME280;28426;42.872;25.314;2024-03-29T09:35:17;97056.19;;;28.13;20.20
42771;BME280;28426;42.872;25.314;2024-03-29T09:37:44;97044.69;;;28.11;20.60
42771;BME280;28426;42.872;25.314;2024-03-29T09:40:12;97052.03;;;28.15;20.15
42771;BME280;28426;42.872;25.314;2024-03-29T09:42:39;97051.06;;;28.25;19.93
42771;BME280;28426;42.872;25.314;2024-03-29T09:45:07;97050.44;;;28.28;20.44
42771;BME280;28426;42.872;25.314;2024-03-29T09:47:36;97032.06;;;28.29;19.99
42771;BME280;28426;42.872;25.314;2024-03-29T09:50:07;97015.28;;;28.30;19.25
42771;BME280;28426;42.872;25.314;2024-03-29T09:52:34;97009.34;;;28.23;19.96
42771;BME280;28426;42.872;25.314;2024-03-29T09:55:01;96993.53;;;28.20;19.96
42771;BME280;28426;42.872;25.314;2024-03-29T09:57:31;97001.03;;;28.14;19.23
42771;BME280;28426;42.872;25.314;2024-03-29T09:59:58;97011.94;;;27.86;19.44
42771;BME280;28426;42.872;25.314;2024-03-29T10:02:27;97001.13;;;27.62;19.83
42771;BME280;28426;42.872;25.314;2024-03-29T10:04:56;97005.75;;;27.42;20.21
42771;BME280;28426;42.872;25.314;2024-03-29T10:07:27;97007.72;;;27.22;19.79
42771;BME280;28426;42.872;25.314;2024-03-29T10:09:54;97014.00;;;27.03;20.17
42771;BME280;28426;42.872;25.314;2024-03-29T10:12:21;97010.56;;;26.93;20.97
42771;BME280;28426;42.872;25.314;2024-03-29T10:14:48;97007.81;;;26.93;21.34
42771;BME280;28426;42.872;25.314;2024-03-29T10:17:16;97004.75;;;26.99;21.35
42771;BME280;28426;42.872;25.314;2024-03-29T10:19:43;96997.94;;;26.97;20.98
42771;BME280;28426;42.872;25.314;2024-03-29T10:22:10;96994.66;;;26.95;20.67
42771;BME280;28426;42.872;25.314;2024-03-29T10:24:39;96999.91;;;26.91;20.38
42771;BME280;28426;42.872;25.314;2024-03-29T10:27:07;96996.41;;;26.85;20.51
42771;BME280;28426;42.872;25.314;2024-03-29T10:29:33;97005.88;;;26.74;21.10
42771;BME280;28426;42.872;25.314;2024-03-29T10:32:01;96997.41;;;26.70;20.74
42771;BME280;28426;42.872;25.314;2024-03-29T10:34:29;96987.75;;;26.78;20.74
42771;BME280;28426;42.872;25.314;2024-03-29T10:36:56;96984.59;;;26.90;21.10
42771;BME280;28426;42.872;25.314;2024-03-29T10:39:23;96974.09;;;26.97;20.61
42771;BME280;28426;42.872;25.314;2024-03-29T10:41:54;96987.00;;;26.97;21.34
42771;BME280;28426;42.872;25.314;2024-03-29T10:44:23;96988.75;;;27.07;20.97
42771;BME280;28426;42.872;25.314;2024-03-29T10:46:50;96982.03;;;27.18;21.23
42771;BME280;28426;42.872;25.314;2024-03-29T10:49:18;96987.19;;;27.39;20.87
42771;BME280;28426;42.872;25.314;2024-03-29T10:51:45;96988.06;;;27.53;21.11
42771;BME280;28426;42.872;25.314;2024-03-29T10:54:12;96981.53;;;27.68;20.95
42771;BME280;28426;42.872;25.314;2024-03-29T10:56:40;96978.81;;;27.83;21.40
42771;BME280;28426;42.872;25.314;2024-03-29T10:59:16;96962.91;;;27.85;20.48
42771;BME280;28426;42.872;25.314;2024-03-29T11:01:52;96966.44;;;27.85;19.93
42771;BME280;28426;42.872;25.314;2024-03-29T11:04:22;96965.59;;;27.71;19.90
42771;BME280;28426;42.872;25.314;2024-03-29T11:06:54;96963.78;;;27.66;20.97
42771;BME280;28426;42.872;25.314;2024-03-29T11:09:27;96964.28;;;27.68;20.42
42771;BME280;28426;42.872;25.314;2024-03-29T11:11:56;96969.47;;;27.84;20.46
42771;BME280;28426;42.872;25.314;2024-03-29T11:14:33;96969.41;;;27.89;19.74
42771;BME280;28426;42.872;25.314;2024-03-29T11:17:02;96968.47;;;27.93;20.29
42771;BME280;28426;42.872;25.314;2024-03-29T11:19:30;96956.72;;;27.93;20.28
42771;BME280;28426;42.872;25.314;2024-03-29T11:21:57;96961.81;;;28.00;20.42
42771;BME280;28426;42.872;25.314;2024-03-29T11:24:23;96964.44;;;28.05;20.09
42771;BME280;28426;42.872;25.314;2024-03-29T11:26:50;96957.72;;;28.11;20.74
42771;BME280;28426;42.872;25.314;2024-03-29T11:29:21;96958.94;;;28.19;20.01
42771;BME280;28426;42.872;25.314;2024-03-29T11:31:56;96950.63;;;28.24;20.32
42771;BME280;28426;42.872;25.314;2024-03-29T11:34:23;96957.78;;;28.25;20.43
42771;BME280;28426;42.872;25.314;2024-03-29T11:36:50;96950.25;;;28.31;20.36
42771;BME280;28426;42.872;25.314;2024-03-29T11:39:20;96950.47;;;28.35;20.42
42771;BME280;28426;42.872;25.314;2024-03-29T11:41:48;96946.69;;;28.30;20.27
42771;BME280;28426;42.872;25.314;2024-03-29T11:44:16;96947.00;;;28.29;19.92
42771;BME280;28426;42.872;25.314;2024-03-29T11:46:43;96940.38;;;28.30;20.13
42771;BME280;28426;42.872;25.314;2024-03-29T11:49:13;96939.69;;;28.38;20.35
42771;BME280;28426;42.872;25.314;2024-03-29T11:51:41;96929.91;;;28.46;20.89
42771;BME280;28426;42.872;25.314;2024-03-29T11:54:08;96931.03;;;28.45;19.60
42771;BME280;28426;42.872;25.314;2024-03-29T11:56:35;96938.47;;;28.30;19.37
42771;BME280;28426;42.872;25.314;2024-03-29T11:59:03;96931.13;;;28.12;19.33
42771;BME280;28426;42.872;25.314;2024-03-29T12:01:30;96933.03;;;27.97;20.26
42771;BME280;28426;42.872;25.314;2024-03-29T12:03:57;96925.84;;;27.87;19.97
42771;BME280;28426;42.872;25.314;2024-03-29T12:06:26;96930.59;;;27.81;19.79
42771;BME280;28426;42.872;25.314;2024-03-29T12:08:53;96928.94;;;27.66;19.72
42771;BME280;28426;42.872;25.314;2024-03-29T12:11:20;96935.44;;;27.37;19.33
42771;BME280;28426;42.872;25.314;2024-03-29T12:13:47;96928.38;;;26.98;19.31
42771;BME280;28426;42.872;25.314;2024-03-29T12:16:14;96940.56;;;26.67;20.13
42771;BME280;28426;42.872;25.314;2024-03-29T12:18:41;96937.09;;;26.37;20.57
42771;BME280;28426;42.872;25.314;2024-03-29T12:21:08;96936.25;;;26.12;20.19
42771;BME280;28426;42.872;25.314;2024-03-29T12:23:38;96934.03;;;25.90;20.56
42771;BME280;28426;42.872;25.314;2024-03-29T12:26:05;96922.97;;;25.76;21.68
42771;BME280;28426;42.872;25.314;2024-03-29T12:28:31;96923.66;;;25.62;21.19
42771;BME280;28426;42.872;25.314;2024-03-29T12:30:58;96925.94;;;25.50;21.23
42771;BME280;28426;42.872;25.314;2024-03-29T12:33:25;96927.41;;;25.37;21.07
42771;BME280;28426;42.872;25.314;2024-03-29T12:35:52;96925.09;;;25.19;21.42
42771;BME280;28426;42.872;25.314;2024-03-29T12:38:21;96925.78;;;25.01;21.63
42771;BME280;28426;42.872;25.314;2024-03-29T12:40:51;96916.28;;;24.88;21.83
42771;BME280;28426;42.872;25.314;2024-03-29T12:43:20;96909.81;;;24.73;21.94
42771;BME280;28426;42.872;25.314;2024-03-29T12:45:48;96907.94;;;24.68;22.40
42771;BME280;28426;42.872;25.314;2024-03-29T12:48:16;96907.16;;;24.63;22.18
42771;BME280;28426;42.872;25.314;2024-03-29T12:50:44;96919.16;;;24.62;22.72
42771;BME280;28426;42.872;25.314;2024-03-29T12:53:13;96915.88;;;24.60;22.32
42771;BME280;28426;42.872;25.314;2024-03-29T12:55:41;96916.16;;;24.58;22.70
42771;BME280;28426;42.872;25.314;2024-03-29T12:58:11;96910.97;;;24.56;22.68